sensor_id;sensor_type;location;lat;lon;timestamp;P1;durP1;ratioP1;P2;durP2;ratioP2
23668;SDS011;12011;47.422;15.018;2023-02-22T00:01:16;1.56;;;1.52;;
23668;SDS011;12011;47.422;15.018;2023-02-22T00:04:04;1.56;;;1.53;;
23668;SDS011;12011;47.422;15.018;2023-02-22T00:06:35;1.35;;;1.33;;
23668;SDS011;12011;47.422;15.018;2023-02-22T00:09:05;1.31;;;1.29;;
23668;SDS011;12011;47.422;15.018;2023-02-22T00:11:36;1.65;;;1.62;;
23668;SDS011;12011;47.422;15.018;2023-02-22T00:14:07;3.03;;;2.96;;
23668;SDS011;12011;47.422;15.018;2023-02-22T00:16:43;1.72;;;1.69;;
23668;SDS011;12011;47.422;15.018;2023-02-22T00:19:18;1.67;;;1.63;;
23668;SDS011;12011;47.422;15.018;2023-02-22T00:21:51;1.49;;;1.46;;
23668;SDS011;12011;47.422;15.018;2023-02-22T00:24:23;1.69;;;1.66;;
23668;SDS011;12011;47.422;15.018;2023-02-22T00:26:56;2.11;;;2.07;;
23668;SDS011;12011;47.422;15.018;2023-02-22T00:29:28;3.75;;;3.69;;
23668;SDS011;12011;47.422;15.018;2023-02-22T00:32:00;4.77;;;4.70;;
23668;SDS011;12011;47.422;15.018;2023-02-22T00:34:37;4.58;;;4.52;;
23668;SDS011;12011;47.422;15.018;2023-02-22T00:37:10;4.11;;;4.02;;
23668;SDS011;12011;47.422;15.018;2023-02-22T00:39:40;3.41;;;3.31;;
23668;SDS011;12011;47.422;15.018;2023-02-22T00:42:14;4.05;;;3.90;;
23668;SDS011;12011;47.422;15.018;2023-02-22T00:44:49;2.75;;;2.68;;
23668;SDS011;12011;47.422;15.018;2023-02-22T00:47:19;2.56;;;2.50;;
23668;SDS011;12011;47.422;15.018;2023-02-22T00:49:56;1.84;;;1.79;;
23668;SDS011;12011;47.422;15.018;2023-02-22T00:52:26;1.88;;;1.83;;
23668;SDS011;12011;47.422;15.018;2023-02-22T00:55:00;1.97;;;1.91;;
23668;SDS011;12011;47.422;15.018;2023-02-22T00:57:33;1.92;;;1.86;;
23668;SDS011;12011;47.422;15.018;2023-02-22T01:00:06;2.04;;;1.99;;
23668;SDS011;12011;47.422;15.018;2023-02-22T01:02:46;2.35;;;2.28;;
23668;SDS011;12011;47.422;15.018;2023-02-22T01:05:23;2.04;;;1.97;;
23668;SDS011;12011;47.422;15.018;2023-02-22T01:08:03;1.81;;;1.75;;
23668;SDS011;12011;47.422;15.018;2023-02-22T01:10:40;1.46;;;1.41;;
23668;SDS011;12011;47.422;15.018;2023-02-22T01:13:11;1.21;;;1.17;;
23668;SDS011;12011;47.422;15.018;2023-02-22T01:15:44;1.52;;;1.48;;
23668;SDS011;12011;47.422;15.018;2023-02-22T01:18:17;1.52;;;1.47;;
23668;SDS011;12011;47.422;15.018;2023-02-22T01:20:53;1.59;;;1.54;;
23668;SDS011;12011;47.422;15.018;2023-02-22T01:23:24;1.89;;;1.80;;
23668;SDS011;12011;47.422;15.018;2023-02-22T01:25:56;2.04;;;1.95;;
23668;SDS011;12011;47.422;15.018;2023-02-22T01:28:32;1.58;;;1.51;;
23668;SDS011;12011;47.422;15.018;2023-02-22T01:31:04;1.36;;;1.31;;
23668;SDS011;12011;47.422;15.018;2023-02-22T01:33:44;0.87;;;0.84;;
23668;SDS011;12011;47.422;15.018;2023-02-22T01:36:18;1.02;;;0.99;;
23668;SDS011;12011;47.422;15.018;2023-02-22T01:38:49;1.25;;;1.21;;
23668;SDS011;12011;47.422;15.018;2023-02-22T01:41:20;1.23;;;1.21;;
23668;SDS011;12011;47.422;15.018;2023-02-22T01:43:51;1.50;;;1.48;;
23668;SDS011;12011;47.422;15.018;2023-02-22T01:46:24;1.43;;;1.40;;
23668;SDS011;12011;47.422;15.018;2023-02-22T01:48:59;1.27;;;1.22;;
23668;SDS011;12011;47.422;15.018;2023-02-22T01:51:38;1.24;;;1.19;;
23668;SDS011;12011;47.422;15.018;2023-02-22T01:54:14;1.06;;;1.02;;
23668;SDS011;12011;47.422;15.018;2023-02-22T01:56:53;1.20;;;1.16;;
23668;SDS011;12011;47.422;15.018;2023-02-22T01:59:36;1.22;;;1.18;;
23668;SDS011;12011;47.422;15.018;2023-02-22T02:02:15;1.50;;;1.45;;
23668;SDS011;12011;47.422;15.018;2023-02-22T02:04:55;1.26;;;1.21;;
23668;SDS011;12011;47.422;15.018;2023-02-22T02:07:39;1.36;;;1.30;;
23668;SDS011;12011;47.422;15.018;2023-02-22T02:10:13;1.39;;;1.35;;
23668;SDS011;12011;47.422;15.018;2023-02-22T02:12:44;1.41;;;1.39;;
23668;SDS011;12011;47.422;15.018;2023-02-22T02:15:24;1.18;;;1.17;;
23668;SDS011;12011;47.422;15.018;2023-02-22T02:18:00;1.69;;;1.68;;
23668;SDS011;12011;47.422;15.018;2023-02-22T02:20:35;1.78;;;1.77;;
23668;SDS011;12011;47.422;15.018;2023-02-22T02:29:56;1.22;;;1.21;;
23668;SDS011;12011;47.422;15.018;2023-02-22T02:33:08;1.17;;;1.16;;
23668;SDS011;12011;47.422;15.018;2023-02-22T02:35:53;1.46;;;1.45;;
23668;SDS011;12011;47.422;15.018;2023-02-22T02:38:36;1.34;;;1.31;;
23668;SDS011;12011;47.422;15.018;2023-02-22T02:41:19;1.67;;;1.65;;
23668;SDS011;12011;47.422;15.018;2023-02-22T02:43:58;1.95;;;1.93;;
23668;SDS011;12011;47.422;15.018;2023-02-22T02:46:37;2.12;;;2.09;;
23668;SDS011;12011;47.422;15.018;2023-02-22T02:49:20;2.59;;;2.53;;
23668;SDS011;12011;47.422;15.018;2023-02-22T02:52:00;1.86;;;1.81;;
23668;SDS011;12011;47.422;15.018;2023-02-22T02:54:34;1.54;;;1.49;;
23668;SDS011;12011;47.422;15.018;2023-02-22T02:57:08;1.65;;;1.61;;
23668;SDS011;12011;47.422;15.018;2023-02-22T02:59:51;2.29;;;2.24;;
23668;SDS011;12011;47.422;15.018;2023-02-22T03:02:26;1.57;;;1.54;;
23668;SDS011;12011;47.422;15.018;2023-02-22T03:05:28;1.84;;;1.80;;
23668;SDS011;12011;47.422;15.018;2023-02-22T03:08:28;2.05;;;2.01;;
23668;SDS011;12011;47.422;15.018;2023-02-22T03:11:11;1.98;;;1.94;;
23668;SDS011;12011;47.422;15.018;2023-02-22T03:13:49;1.27;;;1.25;;
23668;SDS011;12011;47.422;15.018;2023-02-22T03:16:37;1.00;;;0.99;;
23668;SDS011;12011;47.422;15.018;2023-02-22T03:19:18;1.22;;;1.20;;
23668;SDS011;12011;47.422;15.018;2023-02-22T03:22:01;1.16;;;1.15;;
23668;SDS011;12011;47.422;15.018;2023-02-22T03:24:44;1.13;;;1.12;;
23668;SDS011;12011;47.422;15.018;2023-02-22T03:27:31;1.20;;;1.19;;
23668;SDS011;12011;47.422;15.018;2023-02-22T03:30:10;1.12;;;1.11;;
23668;SDS011;12011;47.422;15.018;2023-02-22T03:32:52;0.90;;;0.90;;
23668;SDS011;12011;47.422;15.018;2023-02-22T03:35:35;0.97;;;0.96;;
23668;SDS011;12011;47.422;15.018;2023-02-22T03:38:16;1.05;;;1.03;;
23668;SDS011;12011;47.422;15.018;2023-02-22T03:40:50;0.84;;;0.83;;
23668;SDS011;12011;47.422;15.018;2023-02-22T03:43:30;0.86;;;0.84;;
23668;SDS011;12011;47.422;15.018;2023-02-22T03:46:11;0.78;;;0.76;;
23668;SDS011;12011;47.422;15.018;2023-02-22T03:48:45;0.78;;;0.76;;
23668;SDS011;12011;47.422;15.018;2023-02-22T03:51:28;0.94;;;0.91;;
23668;SDS011;12011;47.422;15.018;2023-02-22T03:54:03;0.84;;;0.81;;
23668;SDS011;12011;47.422;15.018;2023-02-22T03:56:43;0.94;;;0.91;;
23668;SDS011;12011;47.422;15.018;2023-02-22T03:59:23;1.18;;;1.14;;
23668;SDS011;12011;47.422;15.018;2023-02-22T04:01:57;0.96;;;0.93;;
23668;SDS011;12011;47.422;15.018;2023-02-22T04:04:30;0.89;;;0.86;;
23668;SDS011;12011;47.422;15.018;2023-02-22T04:07:08;0.93;;;0.90;;
23668;SDS011;12011;47.422;15.018;2023-02-22T04:09:42;1.21;;;1.18;;
23668;SDS011;12011;47.422;15.018;2023-02-22T04:12:14;1.07;;;1.04;;
23668;SDS011;12011;47.422;15.018;2023-02-22T04:14:55;1.24;;;1.21;;
23668;SDS011;12011;47.422;15.018;2023-02-22T04:17:26;1.16;;;1.13;;
23668;SDS011;12011;47.422;15.018;2023-02-22T04:19:59;1.07;;;1.04;;
23668;SDS011;12011;47.422;15.018;2023-02-22T04:22:41;1.04;;;1.02;;
23668;SDS011;12011;47.422;15.018;2023-02-22T04:25:15;1.07;;;1.06;;
23668;SDS011;12011;47.422;15.018;2023-02-22T04:27:49;0.98;;;0.97;;
23668;SDS011;12011;47.422;15.018;2023-02-22T04:30:34;1.03;;;1.01;;
23668;SDS011;12011;47.422;15.018;2023-02-22T04:33:13;0.93;;;0.91;;
23668;SDS011;12011;47.422;15.018;2023-02-22T04:35:50;0.90;;;0.88;;
23668;SDS011;12011;47.422;15.018;2023-02-22T04:38:23;1.05;;;1.04;;
23668;SDS011;12011;47.422;15.018;2023-02-22T04:40:59;1.20;;;1.19;;
23668;SDS011;12011;47.422;15.018;2023-02-22T04:43:31;0.94;;;0.93;;
23668;SDS011;12011;47.422;15.018;2023-02-22T04:46:10;1.11;;;1.11;;
23668;SDS011;12011;47.422;15.018;2023-02-22T04:48:41;1.08;;;1.08;;
23668;SDS011;12011;47.422;15.018;2023-02-22T04:51:13;1.12;;;1.12;;
23668;SDS011;12011;47.422;15.018;2023-02-22T04:53:55;0.94;;;0.94;;
23668;SDS011;12011;47.422;15.018;2023-02-22T04:56:28;1.01;;;0.99;;
23668;SDS011;12011;47.422;15.018;2023-02-22T04:58:58;1.22;;;1.20;;
23668;SDS011;12011;47.422;15.018;2023-02-22T05:01:30;1.25;;;1.23;;
23668;SDS011;12011;47.422;15.018;2023-02-22T05:04:05;0.96;;;0.94;;
23668;SDS011;12011;47.422;15.018;2023-02-22T05:06:39;1.18;;;1.17;;
23668;SDS011;12011;47.422;15.018;2023-02-22T05:09:09;0.87;;;0.87;;
23668;SDS011;12011;47.422;15.018;2023-02-22T05:11:43;1.00;;;0.99;;
23668;SDS011;12011;47.422;15.018;2023-02-22T05:14:14;1.12;;;1.12;;
23668;SDS011;12011;47.422;15.018;2023-02-22T05:16:44;1.04;;;1.03;;
23668;SDS011;12011;47.422;15.018;2023-02-22T05:19:16;1.04;;;1.04;;
23668;SDS011;12011;47.422;15.018;2023-02-22T05:21:46;1.23;;;1.22;;
23668;SDS011;12011;47.422;15.018;2023-02-22T05:24:17;1.59;;;1.58;;
23668;SDS011;12011;47.422;15.018;2023-02-22T05:26:50;1.47;;;1.47;;
23668;SDS011;12011;47.422;15.018;2023-02-22T05:29:21;1.59;;;1.58;;
23668;SDS011;12011;47.422;15.018;2023-02-22T05:31:54;1.50;;;1.49;;
23668;SDS011;12011;47.422;15.018;2023-02-22T05:34:27;1.50;;;1.48;;
23668;SDS011;12011;47.422;15.018;2023-02-22T05:37:00;1.62;;;1.60;;
23668;SDS011;12011;47.422;15.018;2023-02-22T05:39:33;1.86;;;1.84;;
23668;SDS011;12011;47.422;15.018;2023-02-22T05:42:07;1.38;;;1.36;;
23668;SDS011;12011;47.422;15.018;2023-02-22T05:44:40;1.36;;;1.34;;
23668;SDS011;12011;47.422;15.018;2023-02-22T05:47:10;1.83;;;1.81;;
23668;SDS011;12011;47.422;15.018;2023-02-22T05:49:40;2.27;;;2.24;;
23668;SDS011;12011;47.422;15.018;2023-02-22T05:52:11;2.30;;;2.27;;
23668;SDS011;12011;47.422;15.018;2023-02-22T05:54:41;2.29;;;2.25;;
23668;SDS011;12011;47.422;15.018;2023-02-22T05:57:16;1.66;;;1.63;;
23668;SDS011;12011;47.422;15.018;2023-02-22T05:59:46;1.83;;;1.80;;
23668;SDS011;12011;47.422;15.018;2023-02-22T06:02:20;1.48;;;1.46;;
23668;SDS011;12011;47.422;15.018;2023-02-22T06:04:53;2.10;;;2.05;;
23668;SDS011;12011;47.422;15.018;2023-02-22T06:07:24;1.72;;;1.67;;
23668;SDS011;12011;47.422;15.018;2023-02-22T06:09:55;2.02;;;1.95;;
23668;SDS011;12011;47.422;15.018;2023-02-22T06:12:28;2.01;;;1.94;;
23668;SDS011;12011;47.422;15.018;2023-02-22T06:15:00;2.28;;;2.19;;
23668;SDS011;12011;47.422;15.018;2023-02-22T06:17:32;2.13;;;2.02;;
23668;SDS011;12011;47.422;15.018;2023-02-22T06:20:05;2.10;;;2.03;;
23668;SDS011;12011;47.422;15.018;2023-02-22T06:22:39;2.92;;;2.83;;
23668;SDS011;12011;47.422;15.018;2023-02-22T06:25:12;3.72;;;3.65;;
23668;SDS011;12011;47.422;15.018;2023-02-22T06:27:47;2.82;;;2.77;;
23668;SDS011;12011;47.422;15.018;2023-02-22T06:30:19;2.43;;;2.37;;
23668;SDS011;12011;47.422;15.018;2023-02-22T06:32:51;2.46;;;2.40;;
23668;SDS011;12011;47.422;15.018;2023-02-22T06:35:24;2.62;;;2.57;;
23668;SDS011;12011;47.422;15.018;2023-02-22T06:37:56;2.46;;;2.42;;
23668;SDS011;12011;47.422;15.018;2023-02-22T06:40:28;2.31;;;2.27;;
23668;SDS011;12011;47.422;15.018;2023-02-22T06:43:03;2.06;;;2.01;;
23668;SDS011;12011;47.422;15.018;2023-02-22T06:45:44;2.32;;;2.27;;
23668;SDS011;12011;47.422;15.018;2023-02-22T06:48:15;2.99;;;2.92;;
23668;SDS011;12011;47.422;15.018;2023-02-22T06:50:46;3.15;;;3.09;;
23668;SDS011;12011;47.422;15.018;2023-02-22T06:53:16;2.77;;;2.70;;
23668;SDS011;12011;47.422;15.018;2023-02-22T06:55:46;1.70;;;1.67;;
23668;SDS011;12011;47.422;15.018;2023-02-22T06:58:21;2.42;;;2.36;;
23668;SDS011;12011;47.422;15.018;2023-02-22T07:00:53;2.82;;;2.63;;
23668;SDS011;12011;47.422;15.018;2023-02-22T07:03:23;2.94;;;2.67;;
23668;SDS011;12011;47.422;15.018;2023-02-22T07:05:56;2.23;;;2.10;;
23668;SDS011;12011;47.422;15.018;2023-02-22T07:08:27;2.03;;;1.94;;
23668;SDS011;12011;47.422;15.018;2023-02-22T07:11:00;2.30;;;2.24;;
23668;SDS011;12011;47.422;15.018;2023-02-22T07:13:37;2.96;;;2.89;;
23668;SDS011;12011;47.422;15.018;2023-02-22T07:16:08;2.80;;;2.76;;
23668;SDS011;12011;47.422;15.018;2023-02-22T07:18:40;2.39;;;2.35;;
23668;SDS011;12011;47.422;15.018;2023-02-22T07:21:10;2.42;;;2.38;;
23668;SDS011;12011;47.422;15.018;2023-02-22T07:23:40;2.10;;;2.08;;
23668;SDS011;12011;47.422;15.018;2023-02-22T07:26:13;2.47;;;2.45;;
23668;SDS011;12011;47.422;15.018;2023-02-22T07:28:47;2.21;;;2.19;;
23668;SDS011;12011;47.422;15.018;2023-02-22T07:31:22;1.95;;;1.93;;
23668;SDS011;12011;47.422;15.018;2023-02-22T07:33:53;2.13;;;2.11;;
23668;SDS011;12011;47.422;15.018;2023-02-22T07:36:26;2.10;;;2.08;;
23668;SDS011;12011;47.422;15.018;2023-02-22T07:38:56;2.32;;;2.30;;
23668;SDS011;12011;47.422;15.018;2023-02-22T07:41:27;2.80;;;2.77;;
23668;SDS011;12011;47.422;15.018;2023-02-22T07:44:00;2.70;;;2.69;;
23668;SDS011;12011;47.422;15.018;2023-02-22T07:46:31;2.15;;;2.14;;
23668;SDS011;12011;47.422;15.018;2023-02-22T07:49:01;2.37;;;2.34;;
23668;SDS011;12011;47.422;15.018;2023-02-22T07:51:32;2.44;;;2.43;;
23668;SDS011;12011;47.422;15.018;2023-02-22T07:54:05;2.52;;;2.50;;
23668;SDS011;12011;47.422;15.018;2023-02-22T07:56:35;2.54;;;2.53;;
23668;SDS011;12011;47.422;15.018;2023-02-22T07:59:16;2.58;;;2.56;;
23668;SDS011;12011;47.422;15.018;2023-02-22T08:01:49;2.57;;;2.55;;
23668;SDS011;12011;47.422;15.018;2023-02-22T08:04:29;2.71;;;2.70;;
23668;SDS011;12011;47.422;15.018;2023-02-22T08:06:59;2.50;;;2.49;;
23668;SDS011;12011;47.422;15.018;2023-02-22T08:09:29;1.97;;;1.97;;
23668;SDS011;12011;47.422;15.018;2023-02-22T08:11:59;1.85;;;1.85;;
23668;SDS011;12011;47.422;15.018;2023-02-22T08:14:34;1.66;;;1.66;;
23668;SDS011;12011;47.422;15.018;2023-02-22T08:17:08;1.82;;;1.82;;
23668;SDS011;12011;47.422;15.018;2023-02-22T08:19:39;2.20;;;2.20;;
23668;SDS011;12011;47.422;15.018;2023-02-22T08:22:09;2.31;;;2.31;;
23668;SDS011;12011;47.422;15.018;2023-02-22T08:24:39;1.91;;;1.91;;
23668;SDS011;12011;47.422;15.018;2023-02-22T08:27:15;1.93;;;1.93;;
23668;SDS011;12011;47.422;15.018;2023-02-22T08:29:49;1.76;;;1.74;;
23668;SDS011;12011;47.422;15.018;2023-02-22T08:32:22;2.03;;;2.00;;
23668;SDS011;12011;47.422;15.018;2023-02-22T08:34:52;2.02;;;2.00;;
23668;SDS011;12011;47.422;15.018;2023-02-22T08:37:22;2.03;;;2.01;;
23668;SDS011;12011;47.422;15.018;2023-02-22T08:39:52;2.10;;;2.08;;
23668;SDS011;12011;47.422;15.018;2023-02-22T08:42:23;1.91;;;1.90;;
23668;SDS011;12011;47.422;15.018;2023-02-22T08:45:00;1.93;;;1.91;;
23668;SDS011;12011;47.422;15.018;2023-02-22T08:47:30;1.73;;;1.71;;
23668;SDS011;12011;47.422;15.018;2023-02-22T08:50:01;1.95;;;1.93;;
23668;SDS011;12011;47.422;15.018;2023-02-22T08:52:33;1.41;;;1.41;;
23668;SDS011;12011;47.422;15.018;2023-02-22T08:55:04;2.04;;;2.04;;
23668;SDS011;12011;47.422;15.018;2023-02-22T08:57:35;1.93;;;1.93;;
23668;SDS011;12011;47.422;15.018;2023-02-22T09:00:12;1.96;;;1.95;;
23668;SDS011;12011;47.422;15.018;2023-02-22T09:02:44;2.25;;;2.23;;
23668;SDS011;12011;47.422;15.018;2023-02-22T09:05:17;2.38;;;2.35;;
23668;SDS011;12011;47.422;15.018;2023-02-22T09:07:49;1.93;;;1.92;;
23668;SDS011;12011;47.422;15.018;2023-02-22T09:10:23;2.07;;;2.05;;
23668;SDS011;12011;47.422;15.018;2023-02-22T09:12:56;2.07;;;2.06;;
23668;SDS011;12011;47.422;15.018;2023-02-22T09:15:32;2.27;;;2.26;;
23668;SDS011;12011;47.422;15.018;2023-02-22T09:18:05;2.16;;;2.14;;
23668;SDS011;12011;47.422;15.018;2023-02-22T09:20:42;2.23;;;2.21;;
23668;SDS011;12011;47.422;15.018;2023-02-22T09:23:13;2.29;;;2.28;;
23668;SDS011;12011;47.422;15.018;2023-02-22T09:25:50;2.15;;;2.15;;
23668;SDS011;12011;47.422;15.018;2023-02-22T09:28:20;2.37;;;2.36;;
23668;SDS011;12011;47.422;15.018;2023-02-22T09:30:53;2.69;;;2.68;;
23668;SDS011;12011;47.422;15.018;2023-02-22T09:33:23;2.67;;;2.64;;
23668;SDS011;12011;47.422;15.018;2023-02-22T09:35:55;2.68;;;2.61;;
23668;SDS011;12011;47.422;15.018;2023-02-22T09:38:25;2.75;;;2.67;;
23668;SDS011;12011;47.422;15.018;2023-02-22T09:41:03;2.66;;;2.58;;
23668;SDS011;12011;47.422;15.018;2023-02-22T09:43:48;2.82;;;2.74;;
23668;SDS011;12011;47.422;15.018;2023-02-22T09:46:39;2.73;;;2.63;;
23668;SDS011;12011;47.422;15.018;2023-02-22T09:49:19;3.16;;;3.03;;
23668;SDS011;12011;47.422;15.018;2023-02-22T09:51:57;3.03;;;2.91;;
23668;SDS011;12011;47.422;15.018;2023-02-22T09:54:39;3.30;;;3.17;;
23668;SDS011;12011;47.422;15.018;2023-02-22T09:57:17;3.22;;;3.09;;
23668;SDS011;12011;47.422;15.018;2023-02-22T09:59:56;3.00;;;2.88;;
23668;SDS011;12011;47.422;15.018;2023-02-22T10:02:47;2.89;;;2.74;;
23668;SDS011;12011;47.422;15.018;2023-02-22T10:05:28;2.85;;;2.71;;
23668;SDS011;12011;47.422;15.018;2023-02-22T10:08:09;2.88;;;2.73;;
23668;SDS011;12011;47.422;15.018;2023-02-22T10:10:44;3.49;;;3.29;;
23668;SDS011;12011;47.422;15.018;2023-02-22T10:13:20;3.79;;;3.57;;
23668;SDS011;12011;47.422;15.018;2023-02-22T10:16:04;4.29;;;3.96;;
23668;SDS011;12011;47.422;15.018;2023-02-22T10:19:05;4.21;;;3.93;;
23668;SDS011;12011;47.422;15.018;2023-02-22T10:22:05;3.20;;;3.00;;
23668;SDS011;12011;47.422;15.018;2023-02-22T10:25:09;3.94;;;3.75;;
23668;SDS011;12011;47.422;15.018;2023-02-22T10:27:45;3.05;;;2.90;;
23668;SDS011;12011;47.422;15.018;2023-02-22T10:30:30;3.35;;;3.15;;
23668;SDS011;12011;47.422;15.018;2023-02-22T10:33:08;3.32;;;3.13;;
23668;SDS011;12011;47.422;15.018;2023-02-22T10:36:03;2.86;;;2.69;;
23668;SDS011;12011;47.422;15.018;2023-02-22T10:38:35;3.06;;;2.86;;
23668;SDS011;12011;47.422;15.018;2023-02-22T10:41:18;2.82;;;2.69;;
23668;SDS011;12011;47.422;15.018;2023-02-22T10:43:59;3.00;;;2.88;;
23668;SDS011;12011;47.422;15.018;2023-02-22T10:46:33;3.08;;;2.92;;
23668;SDS011;12011;47.422;15.018;2023-02-22T10:49:06;3.25;;;3.06;;
23668;SDS011;12011;47.422;15.018;2023-02-22T10:51:45;3.09;;;2.93;;
23668;SDS011;12011;47.422;15.018;2023-02-22T10:54:23;2.77;;;2.62;;
23668;SDS011;12011;47.422;15.018;2023-02-22T10:57:04;2.59;;;2.44;;
23668;SDS011;12011;47.422;15.018;2023-02-22T10:59:36;2.25;;;2.10;;
23668;SDS011;12011;47.422;15.018;2023-02-22T11:02:16;3.10;;;2.86;;
23668;SDS011;12011;47.422;15.018;2023-02-22T11:04:52;3.55;;;3.28;;
23668;SDS011;12011;47.422;15.018;2023-02-22T11:07:29;3.10;;;2.87;;
23668;SDS011;12011;47.422;15.018;2023-02-22T11:10:06;3.91;;;3.57;;
23668;SDS011;12011;47.422;15.018;2023-02-22T11:12:42;3.51;;;3.20;;
23668;SDS011;12011;47.422;15.018;2023-02-22T11:15:25;3.27;;;3.03;;
23668;SDS011;12011;47.422;15.018;2023-02-22T11:17:57;3.03;;;2.84;;
23668;SDS011;12011;47.422;15.018;2023-02-22T11:20:28;3.36;;;3.14;;
23668;SDS011;12011;47.422;15.018;2023-02-22T11:23:06;3.64;;;3.34;;
23668;SDS011;12011;47.422;15.018;2023-02-22T11:25:37;2.91;;;2.69;;
23668;SDS011;12011;47.422;15.018;2023-02-22T11:28:14;3.43;;;3.13;;
23668;SDS011;12011;47.422;15.018;2023-02-22T11:30:58;2.93;;;2.72;;
23668;SDS011;12011;47.422;15.018;2023-02-22T11:33:47;3.16;;;2.96;;
23668;SDS011;12011;47.422;15.018;2023-02-22T11:36:29;3.52;;;3.25;;
23668;SDS011;12011;47.422;15.018;2023-02-22T11:39:20;3.33;;;3.05;;
23668;SDS011;12011;47.422;15.018;2023-02-22T11:42:01;3.81;;;3.46;;
23668;SDS011;12011;47.422;15.018;2023-02-22T11:47:46;3.47;;;3.19;;
23668;SDS011;12011;47.422;15.018;2023-02-22T11:50:26;3.54;;;3.24;;
23668;SDS011;12011;47.422;15.018;2023-02-22T11:53:08;3.26;;;3.01;;
23668;SDS011;12011;47.422;15.018;2023-02-22T11:56:18;3.45;;;3.23;;
23668;SDS011;12011;47.422;15.018;2023-02-22T11:58:58;3.06;;;2.92;;
23668;SDS011;12011;47.422;15.018;2023-02-22T12:01:47;3.06;;;2.95;;
23668;SDS011;12011;47.422;15.018;2023-02-22T12:04:36;2.86;;;2.75;;
23668;SDS011;12011;47.422;15.018;2023-02-22T12:07:31;3.43;;;3.31;;
23668;SDS011;12011;47.422;15.018;2023-02-22T12:10:19;3.15;;;3.00;;
23668;SDS011;12011;47.422;15.018;2023-02-22T12:13:14;3.13;;;3.04;;
23668;SDS011;12011;47.422;15.018;2023-02-22T12:16:04;3.02;;;2.93;;
23668;SDS011;12011;47.422;15.018;2023-02-22T12:18:54;2.88;;;2.82;;
23668;SDS011;12011;47.422;15.018;2023-02-22T12:21:43;2.80;;;2.74;;
23668;SDS011;12011;47.422;15.018;2023-02-22T12:24:21;3.03;;;2.95;;
23668;SDS011;12011;47.422;15.018;2023-02-22T12:27:07;2.91;;;2.85;;
23668;SDS011;12011;47.422;15.018;2023-02-22T12:29:53;2.65;;;2.61;;
23668;SDS011;12011;47.422;15.018;2023-02-22T12:32:36;3.09;;;3.00;;
23668;SDS011;12011;47.422;15.018;2023-02-22T12:35:15;3.00;;;2.94;;
23668;SDS011;12011;47.422;15.018;2023-02-22T12:38:19;3.07;;;3.03;;
23668;SDS011;12011;47.422;15.018;2023-02-22T12:41:08;3.35;;;3.31;;
23668;SDS011;12011;47.422;15.018;2023-02-22T12:43:52;3.03;;;2.98;;
23668;SDS011;12011;47.422;15.018;2023-02-22T12:46:35;3.23;;;3.17;;
23668;SDS011;12011;47.422;15.018;2023-02-22T12:49:11;3.47;;;3.39;;
23668;SDS011;12011;47.422;15.018;2023-02-22T12:51:51;3.41;;;3.37;;
23668;SDS011;12011;47.422;15.018;2023-02-22T12:54:38;3.13;;;3.11;;
23668;SDS011;12011;47.422;15.018;2023-02-22T12:57:18;3.46;;;3.44;;
23668;SDS011;12011;47.422;15.018;2023-02-22T13:00:09;4.29;;;4.22;;
23668;SDS011;12011;47.422;15.018;2023-02-22T13:03:05;4.00;;;3.90;;
23668;SDS011;12011;47.422;15.018;2023-02-22T13:06:13;4.13;;;4.07;;
23668;SDS011;12011;47.422;15.018;2023-02-22T13:09:02;3.89;;;3.82;;
23668;SDS011;12011;47.422;15.018;2023-02-22T13:12:02;3.86;;;3.81;;
23668;SDS011;12011;47.422;15.018;2023-02-22T13:14:52;4.01;;;3.99;;
23668;SDS011;12011;47.422;15.018;2023-02-22T13:17:37;3.89;;;3.86;;
23668;SDS011;12011;47.422;15.018;2023-02-22T13:20:22;4.10;;;4.01;;
23668;SDS011;12011;47.422;15.018;2023-02-22T13:23:00;4.74;;;4.67;;
23668;SDS011;12011;47.422;15.018;2023-02-22T13:25:41;4.58;;;4.50;;
23668;SDS011;12011;47.422;15.018;2023-02-22T13:28:23;4.28;;;4.20;;
23668;SDS011;12011;47.422;15.018;2023-02-22T13:34:19;4.04;;;3.99;;
23668;SDS011;12011;47.422;15.018;2023-02-22T13:37:49;4.28;;;4.20;;
23668;SDS011;12011;47.422;15.018;2023-02-22T13:40:56;4.45;;;4.38;;
23668;SDS011;12011;47.422;15.018;2023-02-22T13:44:11;4.46;;;4.36;;
23668;SDS011;12011;47.422;15.018;2023-02-22T13:50:34;4.29;;;4.25;;
23668;SDS011;12011;47.422;15.018;2023-02-22T13:53:41;4.48;;;4.44;;
23668;SDS011;12011;47.422;15.018;2023-02-22T13:56:24;3.96;;;3.91;;
23668;SDS011;12011;47.422;15.018;2023-02-22T13:58:57;3.95;;;3.89;;
23668;SDS011;12011;47.422;15.018;2023-02-22T14:01:37;3.79;;;3.73;;
23668;SDS011;12011;47.422;15.018;2023-02-22T14:04:23;3.82;;;3.77;;
23668;SDS011;12011;47.422;15.018;2023-02-22T14:10:38;3.54;;;3.50;;
23668;SDS011;12011;47.422;15.018;2023-02-22T14:13:16;3.31;;;3.25;;
23668;SDS011;12011;47.422;15.018;2023-02-22T14:19:00;3.80;;;3.76;;
23668;SDS011;12011;47.422;15.018;2023-02-22T14:21:35;3.63;;;3.60;;
23668;SDS011;12011;47.422;15.018;2023-02-22T14:24:06;3.90;;;3.88;;
23668;SDS011;12011;47.422;15.018;2023-02-22T14:26:55;3.46;;;3.43;;
23668;SDS011;12011;47.422;15.018;2023-02-22T14:29:32;3.57;;;3.54;;
23668;SDS011;12011;47.422;15.018;2023-02-22T14:32:06;3.49;;;3.48;;
23668;SDS011;12011;47.422;15.018;2023-02-22T14:34:40;3.11;;;3.08;;
23668;SDS011;12011;47.422;15.018;2023-02-22T14:37:17;3.45;;;3.42;;
23668;SDS011;12011;47.422;15.018;2023-02-22T14:39:54;3.23;;;3.20;;
23668;SDS011;12011;47.422;15.018;2023-02-22T14:42:40;3.14;;;3.12;;
23668;SDS011;12011;47.422;15.018;2023-02-22T14:45:18;3.27;;;3.26;;
23668;SDS011;12011;47.422;15.018;2023-02-22T14:47:59;2.65;;;2.64;;
23668;SDS011;12011;47.422;15.018;2023-02-22T14:50:53;2.64;;;2.63;;
23668;SDS011;12011;47.422;15.018;2023-02-22T14:53:32;2.85;;;2.84;;
23668;SDS011;12011;47.422;15.018;2023-02-22T14:56:18;3.21;;;3.20;;
23668;SDS011;12011;47.422;15.018;2023-02-22T14:58:57;3.29;;;3.26;;
23668;SDS011;12011;47.422;15.018;2023-02-22T15:01:49;3.01;;;2.99;;
23668;SDS011;12011;47.422;15.018;2023-02-22T15:04:32;2.99;;;2.98;;
23668;SDS011;12011;47.422;15.018;2023-02-22T15:07:19;2.82;;;2.81;;
23668;SDS011;12011;47.422;15.018;2023-02-22T15:10:13;2.96;;;2.95;;
23668;SDS011;12011;47.422;15.018;2023-02-22T15:12:51;2.62;;;2.61;;
23668;SDS011;12011;47.422;15.018;2023-02-22T15:15:40;2.97;;;2.96;;
23668;SDS011;12011;47.422;15.018;2023-02-22T15:18:25;3.26;;;3.24;;
23668;SDS011;12011;47.422;15.018;2023-02-22T15:21:03;3.12;;;3.10;;
23668;SDS011;12011;47.422;15.018;2023-02-22T15:23:38;3.25;;;3.23;;
23668;SDS011;12011;47.422;15.018;2023-02-22T15:26:21;2.99;;;2.97;;
23668;SDS011;12011;47.422;15.018;2023-02-22T15:29:06;2.82;;;2.81;;
23668;SDS011;12011;47.422;15.018;2023-02-22T15:31:45;2.84;;;2.83;;
23668;SDS011;12011;47.422;15.018;2023-02-22T15:34:17;2.94;;;2.90;;
23668;SDS011;12011;47.422;15.018;2023-02-22T15:36:53;2.75;;;2.73;;
23668;SDS011;12011;47.422;15.018;2023-02-22T15:39:26;2.80;;;2.78;;
23668;SDS011;12011;47.422;15.018;2023-02-22T15:42:12;2.67;;;2.63;;
23668;SDS011;12011;47.422;15.018;2023-02-22T15:44:48;2.94;;;2.90;;
23668;SDS011;12011;47.422;15.018;2023-02-22T15:47:23;3.12;;;3.08;;
23668;SDS011;12011;47.422;15.018;2023-02-22T15:52:46;2.86;;;2.83;;
23668;SDS011;12011;47.422;15.018;2023-02-22T15:55:24;2.79;;;2.75;;
23668;SDS011;12011;47.422;15.018;2023-02-22T15:57:58;2.82;;;2.75;;
23668;SDS011;12011;47.422;15.018;2023-02-22T16:00:37;2.99;;;2.96;;
23668;SDS011;12011;47.422;15.018;2023-02-22T16:03:14;2.69;;;2.66;;